Metar z połowy godziny Komunikat METAR ze strony awiacja.imgw.pl Metar Mil EPPW METAR EPPW 271330Z VRB02KT 3000 BR SCT004 OVC005 01/01 Q0995 RMK 008 100 8/3=